sensor_id;sensor_type;location;lat;lon;timestamp;temperature;humidity
18839;DHT22;9548;56.920;14.804;2023-02-28T00:01:08;-2.40;99.90
18839;DHT22;9548;56.920;14.804;2023-02-28T00:03:35;-2.40;99.90
18839;DHT22;9548;56.920;14.804;2023-02-28T00:06:03;-2.40;99.90
18839;DHT22;9548;56.920;14.804;2023-02-28T00:08:30;-2.40;99.90
18839;DHT22;9548;56.920;14.804;2023-02-28T00:11:01;-2.50;99.90
18839;DHT22;9548;56.920;14.804;2023-02-28T00:13:28;-2.50;99.90
18839;DHT22;9548;56.920;14.804;2023-02-28T00:16:03;-2.60;99.90
18839;DHT22;9548;56.920;14.804;2023-02-28T00:18:31;-2.60;99.90
18839;DHT22;9548;56.920;14.804;2023-02-28T00:20:58;-2.70;99.90
18839;DHT22;9548;56.920;14.804;2023-02-28T00:23:25;-2.70;99.90
18839;DHT22;9548;56.920;14.804;2023-02-28T00:25:52;-2.80;99.90
18839;DHT22;9548;56.920;14.804;2023-02-28T00:28:21;-2.80;99.90
18839;DHT22;9548;56.920;14.804;2023-02-28T00:30:48;-2.80;99.90
18839;DHT22;9548;56.920;14.804;2023-02-28T00:33:16;-2.80;99.90
18839;DHT22;9548;56.920;14.804;2023-02-28T00:35:43;-2.80;99.90
18839;DHT22;9548;56.920;14.804;2023-02-28T00:38:11;-2.80;99.90
18839;DHT22;9548;56.920;14.804;2023-02-28T00:40:38;-2.80;99.90
18839;DHT22;9548;56.920;14.804;2023-02-28T00:43:05;-2.80;99.90
18839;DHT22;9548;56.920;14.804;2023-02-28T00:45:33;-2.80;99.90
18839;DHT22;9548;56.920;14.804;2023-02-28T00:48:00;-2.80;99.90
18839;DHT22;9548;56.920;14.804;2023-02-28T00:50:27;-2.80;99.90
18839;DHT22;9548;56.920;14.804;2023-02-28T00:52:54;-2.80;99.90
18839;DHT22;9548;56.920;14.804;2023-02-28T00:55:21;-2.80;99.90
18839;DHT22;9548;56.920;14.804;2023-02-28T00:57:48;-2.80;99.90
18839;DHT22;9548;56.920;14.804;2023-02-28T01:00:15;-2.80;99.90
18839;DHT22;9548;56.920;14.804;2023-02-28T01:02:43;-2.80;99.90
18839;DHT22;9548;56.920;14.804;2023-02-28T01:05:10;-2.80;99.90
18839;DHT22;9548;56.920;14.804;2023-02-28T01:07:37;-2.90;99.90
18839;DHT22;9548;56.920;14.804;2023-02-28T01:10:05;-2.90;99.90
18839;DHT22;9548;56.920;14.804;2023-02-28T01:12:32;-2.90;99.90
18839;DHT22;9548;56.920;14.804;2023-02-28T01:14:59;-2.90;99.90
18839;DHT22;9548;56.920;14.804;2023-02-28T01:17:26;-3.00;99.90
18839;DHT22;9548;56.920;14.804;2023-02-28T01:19:55;-3.00;99.90
18839;DHT22;9548;56.920;14.804;2023-02-28T01:22:22;-3.00;99.90
18839;DHT22;9548;56.920;14.804;2023-02-28T01:24:49;-3.10;99.90
18839;DHT22;9548;56.920;14.804;2023-02-28T01:27:15;-3.10;99.90
18839;DHT22;9548;56.920;14.804;2023-02-28T01:29:42;-3.10;99.90
18839;DHT22;9548;56.920;14.804;2023-02-28T01:32:09;-3.10;99.90
18839;DHT22;9548;56.920;14.804;2023-02-28T01:34:36;-3.00;99.90
18839;DHT22;9548;56.920;14.804;2023-02-28T01:37:05;-2.80;99.90
18839;DHT22;9548;56.920;14.804;2023-02-28T01:39:31;-2.70;99.90
18839;DHT22;9548;56.920;14.804;2023-02-28T01:41:58;-2.60;99.90
18839;DHT22;9548;56.920;14.804;2023-02-28T01:45:00;-2.30;99.90
18839;DHT22;9548;56.920;14.804;2023-02-28T01:47:30;-1.90;99.90
18839;DHT22;9548;56.920;14.804;2023-02-28T01:49:58;-1.80;99.90
18839;DHT22;9548;56.920;14.804;2023-02-28T01:52:27;-1.80;99.90
18839;DHT22;9548;56.920;14.804;2023-02-28T01:54:57;-1.90;99.90
18839;DHT22;9548;56.920;14.804;2023-02-28T01:57:29;-2.00;99.90
18839;DHT22;9548;56.920;14.804;2023-02-28T02:00:05;-2.10;99.90
18839;DHT22;9548;56.920;14.804;2023-02-28T02:02:36;-2.30;99.90
18839;DHT22;9548;56.920;14.804;2023-02-28T02:05:06;-2.40;99.90
18839;DHT22;9548;56.920;14.804;2023-02-28T02:07:36;-2.40;99.90
18839;DHT22;9548;56.920;14.804;2023-02-28T02:10:06;-2.50;99.90
18839;DHT22;9548;56.920;14.804;2023-02-28T02:12:49;-2.50;99.90
18839;DHT22;9548;56.920;14.804;2023-02-28T02:15:22;-2.50;99.90
18839;DHT22;9548;56.920;14.804;2023-02-28T02:17:53;-2.60;99.90
18839;DHT22;9548;56.920;14.804;2023-02-28T02:23:44;-2.70;99.90
18839;DHT22;9548;56.920;14.804;2023-02-28T02:26:40;-2.80;99.90
18839;DHT22;9548;56.920;14.804;2023-02-28T02:29:27;-2.90;99.90
18839;DHT22;9548;56.920;14.804;2023-02-28T02:32:16;-3.00;99.90
18839;DHT22;9548;56.920;14.804;2023-02-28T02:34:55;-3.00;99.90
18839;DHT22;9548;56.920;14.804;2023-02-28T02:37:31;-3.00;99.90
18839;DHT22;9548;56.920;14.804;2023-02-28T02:40:08;-3.00;99.90
18839;DHT22;9548;56.920;14.804;2023-02-28T02:42:42;-3.10;99.90
18839;DHT22;9548;56.920;14.804;2023-02-28T02:45:14;-3.10;99.90
18839;DHT22;9548;56.920;14.804;2023-02-28T02:47:43;-3.20;99.90
18839;DHT22;9548;56.920;14.804;2023-02-28T02:50:17;-3.20;99.90
18839;DHT22;9548;56.920;14.804;2023-02-28T02:52:50;-3.30;99.90
18839;DHT22;9548;56.920;14.804;2023-02-28T02:55:18;-3.30;99.90
18839;DHT22;9548;56.920;14.804;2023-02-28T02:57:49;-3.30;99.90
18839;DHT22;9548;56.920;14.804;2023-02-28T03:00:21;-3.30;99.90
18839;DHT22;9548;56.920;14.804;2023-02-28T03:02:52;-3.30;99.90
18839;DHT22;9548;56.920;14.804;2023-02-28T03:05:25;-3.30;99.90
18839;DHT22;9548;56.920;14.804;2023-02-28T03:07:53;-3.30;99.90
18839;DHT22;9548;56.920;14.804;2023-02-28T03:10:34;-3.30;99.90
18839;DHT22;9548;56.920;14.804;2023-02-28T03:13:36;-3.30;99.90
18839;DHT22;9548;56.920;14.804;2023-02-28T03:16:33;-3.30;99.90
18839;DHT22;9548;56.920;14.804;2023-02-28T03:19:25;-3.30;99.90
18839;DHT22;9548;56.920;14.804;2023-02-28T03:22:12;-3.40;99.90
18839;DHT22;9548;56.920;14.804;2023-02-28T03:24:45;-3.30;99.90
18839;DHT22;9548;56.920;14.804;2023-02-28T03:27:18;-3.30;99.90
18839;DHT22;9548;56.920;14.804;2023-02-28T03:29:50;-3.30;99.90
18839;DHT22;9548;56.920;14.804;2023-02-28T03:32:24;-3.30;99.90
18839;DHT22;9548;56.920;14.804;2023-02-28T03:34:58;-3.40;99.90
18839;DHT22;9548;56.920;14.804;2023-02-28T03:37:31;-3.40;99.90
18839;DHT22;9548;56.920;14.804;2023-02-28T03:40:04;-3.50;99.90
18839;DHT22;9548;56.920;14.804;2023-02-28T03:42:36;-3.50;99.90
18839;DHT22;9548;56.920;14.804;2023-02-28T03:45:08;-3.50;99.90
18839;DHT22;9548;56.920;14.804;2023-02-28T03:47:40;-3.50;99.90
18839;DHT22;9548;56.920;14.804;2023-02-28T03:50:12;-3.50;99.90
18839;DHT22;9548;56.920;14.804;2023-02-28T03:52:47;-3.40;99.90
18839;DHT22;9548;56.920;14.804;2023-02-28T03:55:15;-3.40;99.90
18839;DHT22;9548;56.920;14.804;2023-02-28T03:57:51;-3.30;99.90
18839;DHT22;9548;56.920;14.804;2023-02-28T04:00:23;-3.40;99.90
18839;DHT22;9548;56.920;14.804;2023-02-28T04:02:53;-3.30;99.90
18839;DHT22;9548;56.920;14.804;2023-02-28T04:05:21;-3.30;99.90
18839;DHT22;9548;56.920;14.804;2023-02-28T04:07:50;-3.30;99.90
18839;DHT22;9548;56.920;14.804;2023-02-28T04:10:17;-3.30;99.90
18839;DHT22;9548;56.920;14.804;2023-02-28T04:12:44;-3.40;99.90
18839;DHT22;9548;56.920;14.804;2023-02-28T04:15:11;-3.50;99.90
18839;DHT22;9548;56.920;14.804;2023-02-28T04:17:38;-3.60;99.90
18839;DHT22;9548;56.920;14.804;2023-02-28T04:20:07;-3.60;99.90
18839;DHT22;9548;56.920;14.804;2023-02-28T04:22:36;-3.70;99.90
18839;DHT22;9548;56.920;14.804;2023-02-28T04:25:06;-3.70;99.90
18839;DHT22;9548;56.920;14.804;2023-02-28T04:27:33;-3.80;99.90
18839;DHT22;9548;56.920;14.804;2023-02-28T04:30:00;-3.80;99.90
18839;DHT22;9548;56.920;14.804;2023-02-28T04:32:27;-3.80;99.90
18839;DHT22;9548;56.920;14.804;2023-02-28T04:34:54;-3.80;99.90
18839;DHT22;9548;56.920;14.804;2023-02-28T04:37:21;-3.80;99.90
18839;DHT22;9548;56.920;14.804;2023-02-28T04:39:53;-3.80;99.90
18839;DHT22;9548;56.920;14.804;2023-02-28T04:42:22;-3.80;99.90
18839;DHT22;9548;56.920;14.804;2023-02-28T04:44:48;-3.80;99.90
18839;DHT22;9548;56.920;14.804;2023-02-28T04:47:15;-3.90;99.90
18839;DHT22;9548;56.920;14.804;2023-02-28T04:49:42;-3.90;99.90
18839;DHT22;9548;56.920;14.804;2023-02-28T04:52:09;-3.90;99.90
18839;DHT22;9548;56.920;14.804;2023-02-28T04:54:36;-4.00;99.90
18839;DHT22;9548;56.920;14.804;2023-02-28T04:57:04;-4.00;99.90
18839;DHT22;9548;56.920;14.804;2023-02-28T04:59:32;-4.00;99.90
18839;DHT22;9548;56.920;14.804;2023-02-28T05:02:00;-4.00;99.90
18839;DHT22;9548;56.920;14.804;2023-02-28T05:04:32;-4.00;99.90
18839;DHT22;9548;56.920;14.804;2023-02-28T05:07:00;-4.10;99.90
18839;DHT22;9548;56.920;14.804;2023-02-28T05:09:27;-4.10;99.90
18839;DHT22;9548;56.920;14.804;2023-02-28T05:11:54;-4.20;99.90
18839;DHT22;9548;56.920;14.804;2023-02-28T05:14:21;-4.20;99.90
18839;DHT22;9548;56.920;14.804;2023-02-28T05:16:49;-4.20;99.90
18839;DHT22;9548;56.920;14.804;2023-02-28T05:19:16;-4.20;99.90
18839;DHT22;9548;56.920;14.804;2023-02-28T05:21:50;-4.20;99.90
18839;DHT22;9548;56.920;14.804;2023-02-28T05:24:17;-4.30;99.90
18839;DHT22;9548;56.920;14.804;2023-02-28T05:26:49;-4.30;99.90
18839;DHT22;9548;56.920;14.804;2023-02-28T05:29:17;-4.20;99.90
18839;DHT22;9548;56.920;14.804;2023-02-28T05:31:44;-4.20;99.90
18839;DHT22;9548;56.920;14.804;2023-02-28T05:34:13;-4.10;99.90
18839;DHT22;9548;56.920;14.804;2023-02-28T05:36:41;-4.10;99.90
18839;DHT22;9548;56.920;14.804;2023-02-28T05:39:08;-4.10;99.90
18839;DHT22;9548;56.920;14.804;2023-02-28T05:41:39;-4.10;99.90
18839;DHT22;9548;56.920;14.804;2023-02-28T05:44:06;-4.20;99.90
18839;DHT22;9548;56.920;14.804;2023-02-28T05:46:33;-4.20;99.90
18839;DHT22;9548;56.920;14.804;2023-02-28T05:49:00;-4.30;99.90
18839;DHT22;9548;56.920;14.804;2023-02-28T05:51:29;-4.30;99.90
18839;DHT22;9548;56.920;14.804;2023-02-28T05:53:59;-4.30;99.90
18839;DHT22;9548;56.920;14.804;2023-02-28T05:56:26;-4.30;99.90
18839;DHT22;9548;56.920;14.804;2023-02-28T05:58:53;-4.30;99.90
18839;DHT22;9548;56.920;14.804;2023-02-28T06:01:23;-4.30;99.90
18839;DHT22;9548;56.920;14.804;2023-02-28T06:03:50;-4.30;99.90
18839;DHT22;9548;56.920;14.804;2023-02-28T06:06:17;-4.30;99.90
18839;DHT22;9548;56.920;14.804;2023-02-28T06:08:46;-4.30;99.90
18839;DHT22;9548;56.920;14.804;2023-02-28T06:11:12;-4.20;99.90
18839;DHT22;9548;56.920;14.804;2023-02-28T06:13:40;-4.20;99.90
18839;DHT22;9548;56.920;14.804;2023-02-28T06:16:08;-4.10;99.90
18839;DHT22;9548;56.920;14.804;2023-02-28T06:18:35;-4.00;99.90
18839;DHT22;9548;56.920;14.804;2023-02-28T06:21:03;-4.00;99.90
18839;DHT22;9548;56.920;14.804;2023-02-28T06:23:30;-4.00;99.90
18839;DHT22;9548;56.920;14.804;2023-02-28T06:25:58;-4.00;99.90
18839;DHT22;9548;56.920;14.804;2023-02-28T06:28:25;-4.00;99.90
18839;DHT22;9548;56.920;14.804;2023-02-28T06:30:52;-4.00;99.90
18839;DHT22;9548;56.920;14.804;2023-02-28T06:33:19;-4.00;99.90
18839;DHT22;9548;56.920;14.804;2023-02-28T06:35:47;-4.00;99.90
18839;DHT22;9548;56.920;14.804;2023-02-28T06:38:14;-4.00;99.90
18839;DHT22;9548;56.920;14.804;2023-02-28T06:40:41;-4.00;99.90
18839;DHT22;9548;56.920;14.804;2023-02-28T06:43:11;-4.00;99.90
18839;DHT22;9548;56.920;14.804;2023-02-28T06:45:42;-3.90;99.90
18839;DHT22;9548;56.920;14.804;2023-02-28T06:48:09;-3.80;99.90
18839;DHT22;9548;56.920;14.804;2023-02-28T06:50:36;-3.80;99.90
18839;DHT22;9548;56.920;14.804;2023-02-28T06:53:03;-3.70;99.90
18839;DHT22;9548;56.920;14.804;2023-02-28T06:55:30;-3.60;99.90
18839;DHT22;9548;56.920;14.804;2023-02-28T06:57:57;-3.60;99.90
18839;DHT22;9548;56.920;14.804;2023-02-28T07:00:26;-3.50;99.90
18839;DHT22;9548;56.920;14.804;2023-02-28T07:02:53;-3.40;99.90
18839;DHT22;9548;56.920;14.804;2023-02-28T07:05:21;-3.30;99.90
18839;DHT22;9548;56.920;14.804;2023-02-28T07:07:48;-3.30;99.90
18839;DHT22;9548;56.920;14.804;2023-02-28T07:10:15;-3.20;99.90
18839;DHT22;9548;56.920;14.804;2023-02-28T07:12:42;-3.10;99.90
18839;DHT22;9548;56.920;14.804;2023-02-28T07:15:10;-3.00;99.90
18839;DHT22;9548;56.920;14.804;2023-02-28T07:17:38;-2.80;99.90
18839;DHT22;9548;56.920;14.804;2023-02-28T07:20:06;-2.70;99.90
18839;DHT22;9548;56.920;14.804;2023-02-28T07:22:33;-2.60;99.90
18839;DHT22;9548;56.920;14.804;2023-02-28T07:25:00;-2.50;99.90
18839;DHT22;9548;56.920;14.804;2023-02-28T07:27:27;-2.30;99.90
18839;DHT22;9548;56.920;14.804;2023-02-28T07:29:54;-2.20;99.90
18839;DHT22;9548;56.920;14.804;2023-02-28T07:32:21;-1.80;99.90
18839;DHT22;9548;56.920;14.804;2023-02-28T07:34:50;-1.50;99.90
18839;DHT22;9548;56.920;14.804;2023-02-28T07:37:17;-1.40;99.90
18839;DHT22;9548;56.920;14.804;2023-02-28T07:39:43;-1.30;99.90
18839;DHT22;9548;56.920;14.804;2023-02-28T07:42:10;-1.10;99.90
18839;DHT22;9548;56.920;14.804;2023-02-28T07:44:38;-0.80;99.90
18839;DHT22;9548;56.920;14.804;2023-02-28T07:47:07;-0.70;99.90
18839;DHT22;9548;56.920;14.804;2023-02-28T07:49:34;-0.60;99.90
18839;DHT22;9548;56.920;14.804;2023-02-28T07:52:03;-0.40;99.90
18839;DHT22;9548;56.920;14.804;2023-02-28T07:54:30;-0.20;99.90
18839;DHT22;9548;56.920;14.804;2023-02-28T07:56:57;0.00;99.90
18839;DHT22;9548;56.920;14.804;2023-02-28T07:59:24;0.10;99.90
18839;DHT22;9548;56.920;14.804;2023-02-28T08:01:51;0.20;99.90
18839;DHT22;9548;56.920;14.804;2023-02-28T08:04:19;0.20;99.90
18839;DHT22;9548;56.920;14.804;2023-02-28T08:06:46;0.30;99.90
18839;DHT22;9548;56.920;14.804;2023-02-28T08:09:14;0.40;99.90
18839;DHT22;9548;56.920;14.804;2023-02-28T08:11:41;0.60;99.90
18839;DHT22;9548;56.920;14.804;2023-02-28T08:14:08;0.70;99.90
18839;DHT22;9548;56.920;14.804;2023-02-28T08:16:35;0.70;99.90
18839;DHT22;9548;56.920;14.804;2023-02-28T08:19:02;0.80;99.90
18839;DHT22;9548;56.920;14.804;2023-02-28T08:21:29;0.80;99.90
18839;DHT22;9548;56.920;14.804;2023-02-28T08:23:56;0.90;99.90
18839;DHT22;9548;56.920;14.804;2023-02-28T08:26:24;1.10;99.90
18839;DHT22;9548;56.920;14.804;2023-02-28T08:28:51;1.20;99.90
18839;DHT22;9548;56.920;14.804;2023-02-28T08:31:18;1.30;99.90
18839;DHT22;9548;56.920;14.804;2023-02-28T08:33:46;1.40;99.90
18839;DHT22;9548;56.920;14.804;2023-02-28T08:36:14;1.50;99.90
18839;DHT22;9548;56.920;14.804;2023-02-28T08:38:41;1.70;99.90
18839;DHT22;9548;56.920;14.804;2023-02-28T08:41:11;1.80;99.90
18839;DHT22;9548;56.920;14.804;2023-02-28T08:43:40;1.90;99.90
18839;DHT22;9548;56.920;14.804;2023-02-28T08:46:08;2.00;99.90
18839;DHT22;9548;56.920;14.804;2023-02-28T08:48:37;2.10;99.90
18839;DHT22;9548;56.920;14.804;2023-02-28T08:51:06;2.20;99.90
18839;DHT22;9548;56.920;14.804;2023-02-28T08:53:35;2.30;99.90
18839;DHT22;9548;56.920;14.804;2023-02-28T08:56:03;2.40;99.90
18839;DHT22;9548;56.920;14.804;2023-02-28T08:58:31;2.50;99.90
18839;DHT22;9548;56.920;14.804;2023-02-28T09:01:06;2.70;99.90
18839;DHT22;9548;56.920;14.804;2023-02-28T09:03:33;2.80;99.90
18839;DHT22;9548;56.920;14.804;2023-02-28T09:06:01;3.00;99.90
18839;DHT22;9548;56.920;14.804;2023-02-28T09:08:29;3.10;99.90
18839;DHT22;9548;56.920;14.804;2023-02-28T09:10:57;3.30;99.90
18839;DHT22;9548;56.920;14.804;2023-02-28T09:13:25;3.40;99.90
18839;DHT22;9548;56.920;14.804;2023-02-28T09:15:52;3.50;99.90
18839;DHT22;9548;56.920;14.804;2023-02-28T09:18:21;3.70;99.90
18839;DHT22;9548;56.920;14.804;2023-02-28T09:20:47;3.90;99.90
18839;DHT22;9548;56.920;14.804;2023-02-28T09:23:16;4.00;99.90
18839;DHT22;9548;56.920;14.804;2023-02-28T09:25:48;4.10;99.90
18839;DHT22;9548;56.920;14.804;2023-02-28T09:28:15;4.30;99.90
18839;DHT22;9548;56.920;14.804;2023-02-28T09:30:44;4.50;99.90
18839;DHT22;9548;56.920;14.804;2023-02-28T09:33:12;4.60;99.90
18839;DHT22;9548;56.920;14.804;2023-02-28T09:35:40;4.70;99.90
18839;DHT22;9548;56.920;14.804;2023-02-28T09:38:09;4.80;99.90
18839;DHT22;9548;56.920;14.804;2023-02-28T09:40:37;4.90;99.90
18839;DHT22;9548;56.920;14.804;2023-02-28T09:43:09;5.00;99.90
18839;DHT22;9548;56.920;14.804;2023-02-28T09:45:39;5.00;99.90
18839;DHT22;9548;56.920;14.804;2023-02-28T09:48:10;5.10;99.90
18839;DHT22;9548;56.920;14.804;2023-02-28T09:50:47;5.30;99.90
18839;DHT22;9548;56.920;14.804;2023-02-28T09:53:19;5.40;99.90
18839;DHT22;9548;56.920;14.804;2023-02-28T09:55:50;5.70;99.90
18839;DHT22;9548;56.920;14.804;2023-02-28T09:58:22;5.80;99.90
18839;DHT22;9548;56.920;14.804;2023-02-28T10:00:56;6.00;99.90
18839;DHT22;9548;56.920;14.804;2023-02-28T10:03:29;6.10;99.90
18839;DHT22;9548;56.920;14.804;2023-02-28T10:06:02;6.30;99.90
18839;DHT22;9548;56.920;14.804;2023-02-28T10:08:35;6.40;99.90
18839;DHT22;9548;56.920;14.804;2023-02-28T10:11:09;6.40;99.90
18839;DHT22;9548;56.920;14.804;2023-02-28T10:13:43;6.70;99.90
18839;DHT22;9548;56.920;14.804;2023-02-28T10:16:14;6.80;99.90
18839;DHT22;9548;56.920;14.804;2023-02-28T10:18:46;6.90;99.90
18839;DHT22;9548;56.920;14.804;2023-02-28T10:21:20;6.90;99.90
18839;DHT22;9548;56.920;14.804;2023-02-28T10:23:48;7.10;99.90
18839;DHT22;9548;56.920;14.804;2023-02-28T10:26:17;7.40;99.90
18839;DHT22;9548;56.920;14.804;2023-02-28T10:28:44;7.70;99.90
18839;DHT22;9548;56.920;14.804;2023-02-28T10:31:15;8.00;99.90
18839;DHT22;9548;56.920;14.804;2023-02-28T10:33:43;8.60;99.90
18839;DHT22;9548;56.920;14.804;2023-02-28T10:36:15;9.00;99.90
18839;DHT22;9548;56.920;14.804;2023-02-28T10:38:45;9.50;99.90
18839;DHT22;9548;56.920;14.804;2023-02-28T10:41:15;10.10;99.90
18839;DHT22;9548;56.920;14.804;2023-02-28T10:43:43;10.60;99.90
18839;DHT22;9548;56.920;14.804;2023-02-28T10:46:14;11.00;99.90
18839;DHT22;9548;56.920;14.804;2023-02-28T10:49:01;11.30;99.90
18839;DHT22;9548;56.920;14.804;2023-02-28T10:51:35;11.50;99.90
18839;DHT22;9548;56.920;14.804;2023-02-28T10:54:04;12.30;99.90
18839;DHT22;9548;56.920;14.804;2023-02-28T10:56:31;12.80;99.90
18839;DHT22;9548;56.920;14.804;2023-02-28T10:59:00;13.50;99.90
18839;DHT22;9548;56.920;14.804;2023-02-28T11:01:36;13.40;99.90
18839;DHT22;9548;56.920;14.804;2023-02-28T11:04:04;13.50;99.90
18839;DHT22;9548;56.920;14.804;2023-02-28T11:06:42;14.80;99.90
18839;DHT22;9548;56.920;14.804;2023-02-28T11:09:19;15.30;99.90
18839;DHT22;9548;56.920;14.804;2023-02-28T11:11:49;15.30;99.90
18839;DHT22;9548;56.920;14.804;2023-02-28T11:14:21;15.50;99.90
18839;DHT22;9548;56.920;14.804;2023-02-28T11:16:49;16.00;99.90
18839;DHT22;9548;56.920;14.804;2023-02-28T11:19:20;16.70;99.90
18839;DHT22;9548;56.920;14.804;2023-02-28T11:21:53;16.50;99.90
18839;DHT22;9548;56.920;14.804;2023-02-28T11:24:25;16.40;99.90
18839;DHT22;9548;56.920;14.804;2023-02-28T11:26:53;17.00;99.60
18839;DHT22;9548;56.920;14.804;2023-02-28T11:29:22;17.00;99.80
18839;DHT22;9548;56.920;14.804;2023-02-28T11:32:18;18.20;98.70
18839;DHT22;9548;56.920;14.804;2023-02-28T11:34:59;18.90;95.40
18839;DHT22;9548;56.920;14.804;2023-02-28T11:37:27;17.90;95.40
18839;DHT22;9548;56.920;14.804;2023-02-28T11:39:56;17.60;95.80
18839;DHT22;9548;56.920;14.804;2023-02-28T11:42:35;18.50;96.50
18839;DHT22;9548;56.920;14.804;2023-02-28T11:45:14;19.20;94.20
18839;DHT22;9548;56.920;14.804;2023-02-28T11:47:48;18.50;94.50
18839;DHT22;9548;56.920;14.804;2023-02-28T11:53:22;18.50;94.60
18839;DHT22;9548;56.920;14.804;2023-02-28T11:56:02;19.30;93.20
18839;DHT22;9548;56.920;14.804;2023-02-28T11:58:40;18.70;93.50
18839;DHT22;9548;56.920;14.804;2023-02-28T12:01:32;18.80;93.80
18839;DHT22;9548;56.920;14.804;2023-02-28T12:04:16;20.00;92.40
18839;DHT22;9548;56.920;14.804;2023-02-28T12:06:47;19.80;92.00
18839;DHT22;9548;56.920;14.804;2023-02-28T12:09:38;18.50;93.20
18839;DHT22;9548;56.920;14.804;2023-02-28T12:12:17;18.10;93.70
18839;DHT22;9548;56.920;14.804;2023-02-28T12:15:05;18.80;93.00
18839;DHT22;9548;56.920;14.804;2023-02-28T12:17:50;19.40;92.50
18839;DHT22;9548;56.920;14.804;2023-02-28T12:20:25;19.20;92.50
18839;DHT22;9548;56.920;14.804;2023-02-28T12:23:08;19.40;92.20
18839;DHT22;9548;56.920;14.804;2023-02-28T12:25:50;19.90;91.50
18839;DHT22;9548;56.920;14.804;2023-02-28T12:28:25;20.80;90.00
18839;DHT22;9548;56.920;14.804;2023-02-28T12:30:56;20.60;89.90
18839;DHT22;9548;56.920;14.804;2023-02-28T12:33:28;20.40;91.30
18839;DHT22;9548;56.920;14.804;2023-02-28T12:35:57;21.20;89.30
18839;DHT22;9548;56.920;14.804;2023-02-28T12:38:28;21.30;87.50
18839;DHT22;9548;56.920;14.804;2023-02-28T12:40:59;20.90;87.90
18839;DHT22;9548;56.920;14.804;2023-02-28T12:43:32;21.70;86.70
18839;DHT22;9548;56.920;14.804;2023-02-28T12:46:04;22.20;85.50
18839;DHT22;9548;56.920;14.804;2023-02-28T12:48:39;21.90;83.80
18839;DHT22;9548;56.920;14.804;2023-02-28T12:51:07;21.50;84.50
18839;DHT22;9548;56.920;14.804;2023-02-28T12:53:43;20.90;85.70
18839;DHT22;9548;56.920;14.804;2023-02-28T12:56:17;20.60;87.00
18839;DHT22;9548;56.920;14.804;2023-02-28T12:58:49;19.90;87.10
18839;DHT22;9548;56.920;14.804;2023-02-28T13:01:42;19.60;88.80
18839;DHT22;9548;56.920;14.804;2023-02-28T13:04:48;19.30;88.60
18839;DHT22;9548;56.920;14.804;2023-02-28T13:07:48;18.00;91.20
18839;DHT22;9548;56.920;14.804;2023-02-28T13:10:19;18.50;90.50
18839;DHT22;9548;56.920;14.804;2023-02-28T13:12:50;18.60;90.60
18839;DHT22;9548;56.920;14.804;2023-02-28T13:15:22;19.30;90.10
18839;DHT22;9548;56.920;14.804;2023-02-28T13:17:52;20.30;88.10
18839;DHT22;9548;56.920;14.804;2023-02-28T13:20:21;21.30;86.40
18839;DHT22;9548;56.920;14.804;2023-02-28T13:22:51;21.40;84.30
18839;DHT22;9548;56.920;14.804;2023-02-28T13:25:52;21.20;85.50
18839;DHT22;9548;56.920;14.804;2023-02-28T13:35:15;22.70;83.50
18839;DHT22;9548;56.920;14.804;2023-02-28T13:38:32;22.90;81.10
18839;DHT22;9548;56.920;14.804;2023-02-28T13:44:02;22.10;80.10
18839;DHT22;9548;56.920;14.804;2023-02-28T13:46:31;23.10;79.10
18839;DHT22;9548;56.920;14.804;2023-02-28T13:49:18;23.90;77.40
18839;DHT22;9548;56.920;14.804;2023-02-28T13:51:48;24.70;76.20
18839;DHT22;9548;56.920;14.804;2023-02-28T13:54:27;25.30;72.70
18839;DHT22;9548;56.920;14.804;2023-02-28T13:57:06;25.20;71.40
18839;DHT22;9548;56.920;14.804;2023-02-28T13:59:42;23.00;74.20
18839;DHT22;9548;56.920;14.804;2023-02-28T14:05:13;22.90;76.00
18839;DHT22;9548;56.920;14.804;2023-02-28T14:07:45;23.40;76.00
18839;DHT22;9548;56.920;14.804;2023-02-28T14:10:23;24.90;72.70
18839;DHT22;9548;56.920;14.804;2023-02-28T14:12:57;25.20;70.50
18839;DHT22;9548;56.920;14.804;2023-02-28T14:15:45;24.50;70.40
18839;DHT22;9548;56.920;14.804;2023-02-28T14:18:23;23.70;72.20
18839;DHT22;9548;56.920;14.804;2023-02-28T14:20:55;23.30;72.00
18839;DHT22;9548;56.920;14.804;2023-02-28T14:23:38;22.80;72.00
18839;DHT22;9548;56.920;14.804;2023-02-28T14:26:18;21.20;75.80
18839;DHT22;9548;56.920;14.804;2023-02-28T14:29:00;20.50;76.70
18839;DHT22;9548;56.920;14.804;2023-02-28T14:31:32;20.00;78.30
18839;DHT22;9548;56.920;14.804;2023-02-28T14:34:15;19.20;79.80
18839;DHT22;9548;56.920;14.804;2023-02-28T14:36:45;18.20;82.10
18839;DHT22;9548;56.920;14.804;2023-02-28T14:39:14;17.30;85.20
18839;DHT22;9548;56.920;14.804;2023-02-28T14:41:43;16.60;86.40
18839;DHT22;9548;56.920;14.804;2023-02-28T14:44:15;16.30;90.20
18839;DHT22;9548;56.920;14.804;2023-02-28T14:46:43;16.00;89.20
18839;DHT22;9548;56.920;14.804;2023-02-28T14:49:16;15.70;90.90
18839;DHT22;9548;56.920;14.804;2023-02-28T14:51:44;15.60;90.90
18839;DHT22;9548;56.920;14.804;2023-02-28T14:54:15;15.60;90.40
18839;DHT22;9548;56.920;14.804;2023-02-28T14:56:43;15.70;90.70
18839;DHT22;9548;56.920;14.804;2023-02-28T14:59:25;15.90;90.40
18839;DHT22;9548;56.920;14.804;2023-02-28T15:01:52;16.20;90.40
18839;DHT22;9548;56.920;14.804;2023-02-28T15:04:24;16.40;90.00
18839;DHT22;9548;56.920;14.804;2023-02-28T15:07:07;16.30;90.40
18839;DHT22;9548;56.920;14.804;2023-02-28T15:09:36;15.90;90.60
18839;DHT22;9548;56.920;14.804;2023-02-28T15:12:03;16.00;90.90
18839;DHT22;9548;56.920;14.804;2023-02-28T15:14:30;16.60;90.80
18839;DHT22;9548;56.920;14.804;2023-02-28T15:17:01;16.10;90.60
18839;DHT22;9548;56.920;14.804;2023-02-28T15:19:31;15.80;91.20
18839;DHT22;9548;56.920;14.804;2023-02-28T15:22:02;16.00;91.00
18839;DHT22;9548;56.920;14.804;2023-02-28T15:24:37;16.00;90.90
18839;DHT22;9548;56.920;14.804;2023-02-28T15:27:07;15.50;91.30
18839;DHT22;9548;56.920;14.804;2023-02-28T15:29:43;14.80;92.20
18839;DHT22;9548;56.920;14.804;2023-02-28T15:32:26;14.00;93.30
18839;DHT22;9548;56.920;14.804;2023-02-28T15:34:54;13.10;94.70
18839;DHT22;9548;56.920;14.804;2023-02-28T15:37:39;12.60;95.80
18839;DHT22;9548;56.920;14.804;2023-02-28T15:40:16;12.10;97.00
18839;DHT22;9548;56.920;14.804;2023-02-28T15:42:58;11.60;97.90
18839;DHT22;9548;56.920;14.804;2023-02-28T15:45:44;11.20;98.80
18839;DHT22;9548;56.920;14.804;2023-02-28T15:48:17;10.70;99.90
18839;DHT22;9548;56.920;14.804;2023-02-28T15:50:44;10.50;99.90
18839;DHT22;9548;56.920;14.804;2023-02-28T15:53:15;10.30;99.90
18839;DHT22;9548;56.920;14.804;2023-02-28T15:55:44;10.10;99.90
18839;DHT22;9548;56.920;14.804;2023-02-28T15:58:12;9.90;99.90
18839;DHT22;9548;56.920;14.804;2023-02-28T16:00:39;9.70;99.90
18839;DHT22;9548;56.920;14.804;2023-02-28T16:03:23;9.60;99.90
18839;DHT22;9548;56.920;14.804;2023-02-28T16:06:08;9.40;99.90
18839;DHT22;9548;56.920;14.804;2023-02-28T16:08:35;9.20;99.90
18839;DHT22;9548;56.920;14.804;2023-02-28T16:11:04;9.00;99.90
18839;DHT22;9548;56.920;14.804;2023-02-28T16:13:31;8.80;99.90
18839;DHT22;9548;56.920;14.804;2023-02-28T16:15:57;8.60;99.90
18839;DHT22;9548;56.920;14.804;2023-02-28T16:18:26;8.40;99.90
18839;DHT22;9548;56.920;14.804;2023-02-28T16:20:53;8.10;99.90